createdAt,value
2023-02-16T00:00:48.694Z,31.70
2023-02-16T00:03:22.465Z,32.97
2023-02-16T00:05:51.115Z,33.53
2023-02-16T00:08:18.108Z,33.20
2023-02-16T00:11:04.936Z,31.90
2023-02-16T00:13:53.061Z,34.03
2023-02-16T00:16:24.879Z,32.50
2023-02-16T00:18:52.898Z,32.50
2023-02-16T00:21:21.240Z,32.93
2023-02-16T00:23:48.905Z,31.83
2023-02-16T00:26:25.625Z,32.70
2023-02-16T00:28:58.651Z,33.30
2023-02-16T00:31:29.211Z,32.07
2023-02-16T00:33:56.827Z,32.73
2023-02-16T00:36:24.295Z,33.70
2023-02-16T00:38:52.033Z,32.20
2023-02-16T00:41:41.463Z,33.43
2023-02-16T00:44:30.942Z,32.80
2023-02-16T00:47:02.420Z,34.83
2023-02-16T00:49:29.497Z,31.77
2023-02-16T00:51:57.113Z,34.67
2023-02-16T00:54:24.457Z,34.73
2023-02-16T00:56:52.218Z,33.70
2023-02-16T00:59:22.524Z,34.60
2023-02-16T01:01:50.326Z,32.83
2023-02-16T01:04:23.872Z,32.77
2023-02-16T01:07:09.642Z,32.63
2023-02-16T01:09:55.450Z,34.93
2023-02-16T01:12:22.845Z,34.50
2023-02-16T01:14:54.833Z,32.87
2023-02-16T01:17:24.462Z,33.87
2023-02-16T01:19:51.498Z,32.57
2023-02-16T01:22:18.658Z,34.20
2023-02-16T01:24:45.965Z,33.70
2023-02-16T01:27:14.375Z,33.20
2023-02-16T01:29:41.671Z,35.60
2023-02-16T01:32:12.879Z,33.60
2023-02-16T01:34:40.103Z,34.33
2023-02-16T01:37:14.695Z,36.80
2023-02-16T01:39:42.081Z,34.67
2023-02-16T01:42:45.077Z,35.20
2023-02-16T01:45:18.921Z,34.97
2023-02-16T01:47:56.105Z,34.47
2023-02-16T01:50:28.833Z,34.47
2023-02-16T01:53:13.384Z,34.03
2023-02-16T01:55:47.276Z,34.93
2023-02-16T01:58:45.767Z,34.13
2023-02-16T02:01:52.878Z,33.93
2023-02-16T02:04:48.410Z,32.67
2023-02-16T02:07:31.871Z,33.77
2023-02-16T02:10:15.642Z,33.77
2023-02-16T02:13:40.984Z,33.63
2023-02-16T02:16:11.687Z,34.43
2023-02-16T02:18:39.240Z,33.77
2023-02-16T02:21:55.864Z,34.70
2023-02-16T02:24:49.014Z,34.13
2023-02-16T02:27:57.609Z,34.90
2023-02-16T02:30:48.358Z,32.77
2023-02-16T02:33:37.575Z,33.37
2023-02-16T02:36:34.249Z,34.10
2023-02-16T02:39:25.322Z,34.50
2023-02-16T02:42:06.965Z,35.30
2023-02-16T02:45:02.276Z,35.60
2023-02-16T02:47:43.054Z,34.67
2023-02-16T02:51:07.274Z,35.27
2023-02-16T02:53:50.283Z,36.07
2023-02-16T02:56:37.026Z,36.70
2023-02-16T02:59:26.524Z,34.97
2023-02-16T03:02:00.812Z,34.13
2023-02-16T03:04:31.224Z,36.57
2023-02-16T03:07:01.203Z,36.23
2023-02-16T03:09:28.704Z,33.53
2023-02-16T03:12:15.894Z,37.07
2023-02-16T03:14:51.049Z,37.33
2023-02-16T03:17:43.710Z,36.97
2023-02-16T03:20:33.692Z,35.63
2023-02-16T03:23:22.389Z,37.33
2023-02-16T03:26:10.998Z,35.80
2023-02-16T03:29:01.907Z,36.70
2023-02-16T03:31:35.274Z,35.40
2023-02-16T03:34:03.066Z,35.57
2023-02-16T03:36:34.212Z,35.67
2023-02-16T03:39:02.317Z,36.17
2023-02-16T03:41:34.483Z,36.27
2023-02-16T03:44:01.689Z,38.17
2023-02-16T03:46:28.864Z,36.70
2023-02-16T03:48:55.900Z,35.57
2023-02-16T03:51:23.082Z,36.43
2023-02-16T03:53:50.348Z,38.57
2023-02-16T03:56:17.462Z,36.43
2023-02-16T03:58:44.508Z,36.27
2023-02-16T04:01:12.086Z,35.30
2023-02-16T04:03:39.158Z,37.93
2023-02-16T04:06:06.848Z,37.23
2023-02-16T04:08:34.446Z,37.00
2023-02-16T04:11:21.901Z,34.83
2023-02-16T04:13:49.107Z,35.20
2023-02-16T04:16:16.175Z,35.87
2023-02-16T04:18:43.408Z,36.07
2023-02-16T04:21:10.485Z,34.90
2023-02-16T04:23:37.869Z,35.13
2023-02-16T04:26:05.495Z,34.33
2023-02-16T04:28:32.500Z,33.93
2023-02-16T04:30:59.798Z,34.60
2023-02-16T04:33:27.167Z,33.60
2023-02-16T04:35:54.263Z,32.83
2023-02-16T04:38:21.469Z,33.17
2023-02-16T04:40:48.593Z,33.47
2023-02-16T04:43:15.758Z,33.23
2023-02-16T04:45:43.151Z,33.40
2023-02-16T04:48:10.402Z,33.40
2023-02-16T04:50:37.581Z,32.23
2023-02-16T04:53:04.747Z,33.37
2023-02-16T04:55:32.000Z,32.27
2023-02-16T04:57:59.238Z,33.57
2023-02-16T05:00:26.588Z,32.83
2023-02-16T05:02:53.988Z,32.07
2023-02-16T05:05:21.033Z,33.03
2023-02-16T05:07:48.597Z,30.87
2023-02-16T05:10:15.592Z,29.83
2023-02-16T05:13:01.503Z,32.40
2023-02-16T05:15:28.744Z,32.13
2023-02-16T05:17:55.696Z,30.17
2023-02-16T05:20:43.054Z,32.57
2023-02-16T05:23:10.082Z,30.93
2023-02-16T05:25:37.301Z,32.70
2023-02-16T05:28:04.723Z,32.23
2023-02-16T05:30:32.359Z,31.77
2023-02-16T05:32:59.691Z,29.97
2023-02-16T05:35:26.884Z,32.37
2023-02-16T05:37:53.945Z,31.63
2023-02-16T05:40:21.223Z,31.67
2023-02-16T05:42:52.440Z,30.70
2023-02-16T05:45:19.766Z,31.00
2023-02-16T05:47:47.352Z,30.80
2023-02-16T05:50:14.755Z,32.83
2023-02-16T05:52:41.844Z,30.53
2023-02-16T05:55:08.925Z,30.20
2023-02-16T05:57:35.977Z,29.90
2023-02-16T06:00:05.251Z,30.57
2023-02-16T06:02:32.270Z,31.03
2023-02-16T06:04:59.406Z,29.50
2023-02-16T06:07:26.591Z,29.83
2023-02-16T06:09:53.582Z,31.50
2023-02-16T06:12:20.538Z,31.57
2023-02-16T06:14:47.770Z,29.90
2023-02-16T06:17:15.144Z,31.60
2023-02-16T06:19:42.115Z,30.57
2023-02-16T06:22:09.466Z,28.93
2023-02-16T06:24:37.237Z,29.50
2023-02-16T06:27:04.716Z,31.93
2023-02-16T06:29:32.118Z,29.30
2023-02-16T06:31:59.465Z,29.60
2023-02-16T06:34:26.502Z,29.43
2023-02-16T06:36:53.697Z,29.33
2023-02-16T06:39:20.981Z,28.90
2023-02-16T06:41:48.338Z,28.97
2023-02-16T06:44:16.734Z,29.40
2023-02-16T06:46:46.756Z,29.97
2023-02-16T06:49:20.620Z,28.97
2023-02-16T06:51:49.784Z,29.60
2023-02-16T06:54:18.222Z,27.77
2023-02-16T06:56:45.666Z,28.30
2023-02-16T06:59:13.565Z,28.17
2023-02-16T07:01:45.500Z,27.20
2023-02-16T07:04:18.253Z,29.53
2023-02-16T07:06:45.354Z,29.13
2023-02-16T07:09:13.114Z,28.70
2023-02-16T07:11:40.631Z,29.50
2023-02-16T07:14:07.828Z,29.20
2023-02-16T07:16:35.137Z,29.10
2023-02-16T07:19:02.309Z,29.23
2023-02-16T07:21:29.511Z,29.17
2023-02-16T07:23:56.623Z,28.13
2023-02-16T07:26:23.690Z,30.00
2023-02-16T07:28:51.005Z,29.70
2023-02-16T07:31:18.404Z,28.70
2023-02-16T07:33:45.733Z,28.43
2023-02-16T07:36:13.669Z,28.37
2023-02-16T07:38:43.801Z,28.63
2023-02-16T07:41:12.093Z,28.47
2023-02-16T07:43:39.564Z,28.60
2023-02-16T07:46:06.980Z,27.27
2023-02-16T07:48:34.592Z,29.67
2023-02-16T07:51:02.782Z,28.57
2023-02-16T07:53:30.432Z,27.10
2023-02-16T07:55:57.841Z,28.00
2023-02-16T07:58:27.905Z,27.93
2023-02-16T08:01:11.036Z,26.90
2023-02-16T08:03:39.320Z,26.90
2023-02-16T08:06:07.736Z,27.33
2023-02-16T08:08:35.869Z,26.73
2023-02-16T08:11:21.044Z,28.00
2023-02-16T08:13:49.499Z,26.73
2023-02-16T08:16:23.688Z,27.67
2023-02-16T08:18:52.448Z,25.93
2023-02-16T08:21:23.636Z,26.40
2023-02-16T08:24:03.997Z,26.83
2023-02-16T08:26:40.008Z,27.43
2023-02-16T08:29:10.155Z,25.37
2023-02-16T08:31:39.342Z,27.77
2023-02-16T08:34:07.356Z,25.90
2023-02-16T08:36:38.289Z,27.93
2023-02-16T08:39:12.117Z,26.80
2023-02-16T08:41:39.579Z,26.87
2023-02-16T08:44:08.458Z,25.90
2023-02-16T08:46:40.049Z,26.63
2023-02-16T08:49:09.208Z,26.87
2023-02-16T08:51:46.575Z,26.53
2023-02-16T08:54:19.517Z,27.57
2023-02-16T08:56:48.216Z,26.70
2023-02-16T08:59:17.537Z,27.77
2023-02-16T09:01:45.134Z,25.97
2023-02-16T09:04:14.108Z,27.17
2023-02-16T09:06:45.136Z,27.70
2023-02-16T09:09:13.230Z,26.37
2023-02-16T09:11:41.104Z,25.87
2023-02-16T09:14:09.382Z,26.70
2023-02-16T09:16:39.821Z,27.50
2023-02-16T09:19:07.414Z,27.53
2023-02-16T09:21:34.732Z,25.50
2023-02-16T09:24:04.546Z,27.07
2023-02-16T09:26:35.553Z,26.23
2023-02-16T09:29:03.875Z,26.13
2023-02-16T09:31:35.287Z,25.30
2023-02-16T09:34:20.939Z,26.33
2023-02-16T09:36:49.766Z,26.70
2023-02-16T09:39:19.251Z,27.10
2023-02-16T09:42:24.616Z,27.00
2023-02-16T09:45:15.594Z,26.53
2023-02-16T09:47:46.379Z,26.80
2023-02-16T09:50:50.267Z,26.03
2023-02-16T09:53:24.418Z,28.47
2023-02-16T09:56:20.153Z,27.10
2023-02-16T09:58:56.312Z,27.03
2023-02-16T10:01:41.899Z,25.90
2023-02-16T10:04:31.370Z,26.97
2023-02-16T10:07:40.742Z,29.37
2023-02-16T10:10:10.951Z,27.63
2023-02-16T10:12:46.866Z,27.20
2023-02-16T10:15:22.365Z,28.77
2023-02-16T10:18:20.435Z,27.97
2023-02-16T10:20:52.356Z,28.10
2023-02-16T10:23:34.777Z,30.07
2023-02-16T10:26:16.495Z,27.97
2023-02-16T10:28:51.329Z,27.50
2023-02-16T10:31:43.827Z,28.27
2023-02-16T10:34:34.173Z,29.27
2023-02-16T10:37:31.735Z,26.93
2023-02-16T10:40:27.876Z,27.50
2023-02-16T10:43:24.457Z,27.43
2023-02-16T10:46:01.821Z,28.93
2023-02-16T10:48:29.291Z,28.67
2023-02-16T10:51:07.811Z,28.60
2023-02-16T10:53:52.908Z,29.80
2023-02-16T10:56:38.666Z,27.90
2023-02-16T10:59:18.367Z,27.87
2023-02-16T11:01:59.132Z,28.77
2023-02-16T11:04:44.713Z,28.33
2023-02-16T11:07:16.002Z,28.97
2023-02-16T11:09:46.630Z,27.60
2023-02-16T11:12:38.413Z,28.33
2023-02-16T11:15:23.975Z,29.47
2023-02-16T11:18:05.242Z,29.20
2023-02-16T11:20:44.998Z,28.83
2023-02-16T11:23:24.807Z,28.87
2023-02-16T11:26:03.645Z,29.73
2023-02-16T11:28:39.303Z,30.33
2023-02-16T11:31:39.582Z,31.10
2023-02-16T11:34:37.083Z,29.30
2023-02-16T11:37:12.765Z,28.87
2023-02-16T11:39:48.430Z,29.50
2023-02-16T11:42:37.740Z,30.60
2023-02-16T11:45:07.512Z,30.50
2023-02-16T11:47:42.069Z,29.03
2023-02-16T11:50:31.509Z,28.30
2023-02-16T11:53:26.019Z,27.80
2023-02-16T11:56:17.206Z,28.83
2023-02-16T11:59:02.991Z,26.63
2023-02-16T12:02:00.907Z,26.00
2023-02-16T12:04:41.335Z,28.95
2023-02-16T12:07:27.718Z,27.15
2023-02-16T12:10:19.025Z,26.35
2023-02-16T12:13:04.074Z,27.08
2023-02-16T12:15:55.541Z,26.08
2023-02-16T12:19:11.226Z,25.95
2023-02-16T12:22:28.755Z,26.13
2023-02-16T12:25:22.465Z,24.35
2023-02-16T12:28:01.686Z,25.25
2023-02-16T12:31:00.267Z,22.60
2023-02-16T12:33:47.949Z,23.83
2023-02-16T12:36:29.052Z,22.48
2023-02-16T12:39:23.983Z,23.90
2023-02-16T12:42:14.404Z,22.85
2023-02-16T12:44:48.749Z,22.92
2023-02-16T12:47:30.063Z,23.92
2023-02-16T12:50:03.835Z,22.10
2023-02-16T12:52:57.885Z,21.17
2023-02-16T12:55:59.169Z,21.48
2023-02-16T12:58:43.915Z,21.65
2023-02-16T13:01:23.570Z,21.48
2023-02-16T13:04:21.826Z,21.25
2023-02-16T13:07:18.136Z,22.02
2023-02-16T13:10:11.546Z,20.48
2023-02-16T13:13:21.186Z,20.77
2023-02-16T13:15:58.660Z,19.40
2023-02-16T13:18:40.316Z,19.10
2023-02-16T13:25:23.018Z,19.02
2023-02-16T13:25:46.453Z,17.90
2023-02-16T13:28:26.060Z,19.08
2023-02-16T13:31:26.167Z,17.20
2023-02-16T13:34:42.545Z,17.35
2023-02-16T13:37:24.562Z,17.25
2023-02-16T13:40:19.496Z,17.40
2023-02-16T13:43:12.544Z,16.35
2023-02-16T13:45:44.360Z,16.70
2023-02-16T13:48:37.666Z,16.95
2023-02-16T13:51:16.761Z,15.68
2023-02-16T13:53:52.839Z,16.63
2023-02-16T13:56:29.498Z,15.82
2023-02-16T13:59:00.128Z,15.80
2023-02-16T14:01:38.834Z,16.98
2023-02-16T14:04:33.796Z,16.02
2023-02-16T14:07:04.017Z,15.52
2023-02-16T14:09:45.940Z,15.90
2023-02-16T14:12:17.151Z,16.63
2023-02-16T14:14:56.613Z,16.90
2023-02-16T14:17:28.783Z,16.75
2023-02-16T14:20:25.170Z,16.60
2023-02-16T14:23:00.181Z,16.73
2023-02-16T14:25:30.909Z,16.13
2023-02-16T14:28:02.989Z,16.67
2023-02-16T14:30:50.057Z,17.05
2023-02-16T14:33:31.609Z,18.50
2023-02-16T14:35:58.674Z,17.58
2023-02-16T14:38:45.873Z,18.17
2023-02-16T14:41:36.893Z,18.65
2023-02-16T14:44:07.059Z,18.92
2023-02-16T14:46:42.877Z,17.42
2023-02-16T14:50:06.582Z,18.45
2023-02-16T14:53:48.390Z,19.35
2023-02-16T14:56:42.939Z,19.08
2023-02-16T14:59:27.739Z,18.60
2023-02-16T15:01:55.849Z,19.27
2023-02-16T15:04:31.865Z,17.77
2023-02-16T15:07:05.366Z,19.08
2023-02-16T15:09:34.941Z,19.40
2023-02-16T15:12:22.461Z,19.20
2023-02-16T15:14:50.536Z,19.27
2023-02-16T15:17:29.020Z,19.60
2023-02-16T15:20:04.149Z,19.73
2023-02-16T15:22:31.803Z,18.65
2023-02-16T15:25:24.560Z,18.88
2023-02-16T15:27:59.183Z,20.23
2023-02-16T15:30:35.947Z,19.65
2023-02-16T15:33:25.725Z,19.30
2023-02-16T15:36:13.394Z,19.88
2023-02-16T15:38:54.930Z,19.42
2023-02-16T15:41:39.022Z,19.77
2023-02-16T15:44:36.793Z,20.05
2023-02-16T15:47:14.946Z,19.15
2023-02-16T15:49:43.679Z,19.00
2023-02-16T15:52:34.891Z,21.15
2023-02-16T15:55:06.089Z,20.42
2023-02-16T15:57:38.090Z,19.95
2023-02-16T16:00:21.350Z,21.52
2023-02-16T16:02:58.410Z,19.17
2023-02-16T16:05:35.522Z,21.02
2023-02-16T16:08:03.569Z,19.45
2023-02-16T16:10:36.458Z,19.10
2023-02-16T16:13:19.068Z,20.20
2023-02-16T16:15:50.201Z,19.98
2023-02-16T16:18:43.936Z,21.00
2023-02-16T16:21:34.062Z,19.95
2023-02-16T16:24:02.333Z,20.35
2023-02-16T16:26:35.999Z,19.67
2023-02-16T16:29:04.504Z,19.10
2023-02-16T16:31:38.662Z,18.58
2023-02-16T16:34:10.256Z,18.48
2023-02-16T16:36:56.027Z,16.60
2023-02-16T16:39:33.054Z,15.95
2023-02-16T16:42:00.358Z,15.23
2023-02-16T16:44:41.996Z,15.13
2023-02-16T16:47:30.516Z,15.95
2023-02-16T16:50:09.403Z,15.00
2023-02-16T16:52:43.042Z,15.13
2023-02-16T16:55:19.330Z,16.15
2023-02-16T16:57:51.928Z,14.98
2023-02-16T17:00:21.115Z,15.43
2023-02-16T17:02:48.780Z,15.40
2023-02-16T17:05:16.451Z,15.63
2023-02-16T17:07:43.841Z,15.80
2023-02-16T17:10:11.134Z,16.20
2023-02-16T17:12:38.638Z,15.43
2023-02-16T17:15:08.072Z,15.37
2023-02-16T17:17:35.596Z,15.80
2023-02-16T17:20:02.642Z,15.98
2023-02-16T17:22:29.772Z,16.13
2023-02-16T17:24:59.089Z,15.60
2023-02-16T17:27:26.214Z,15.30
2023-02-16T17:29:53.421Z,16.53
2023-02-16T17:32:23.608Z,16.77
2023-02-16T17:34:52.496Z,16.13
2023-02-16T17:37:19.918Z,16.93
2023-02-16T17:39:47.282Z,16.90
2023-02-16T17:42:14.715Z,16.50
2023-02-16T17:44:41.912Z,17.60
2023-02-16T17:47:15.548Z,17.07
2023-02-16T17:49:42.801Z,16.93
2023-02-16T17:52:11.850Z,17.53
2023-02-16T17:54:39.611Z,19.08
2023-02-16T17:57:06.848Z,16.90
2023-02-16T17:59:34.283Z,18.23
2023-02-16T18:02:01.906Z,19.67
2023-02-16T18:04:29.253Z,19.37
2023-02-16T18:06:56.734Z,19.77
2023-02-16T18:09:24.680Z,18.50
2023-02-16T18:11:52.048Z,22.17
2023-02-16T18:14:19.515Z,21.30
2023-02-16T18:16:52.211Z,21.10
2023-02-16T18:19:20.044Z,19.13
2023-02-16T18:21:47.135Z,21.50
2023-02-16T18:24:14.201Z,22.43
2023-02-16T18:26:41.244Z,20.27
2023-02-16T18:29:09.863Z,20.50
2023-02-16T18:31:37.796Z,20.10
2023-02-16T18:34:06.043Z,20.87
2023-02-16T18:36:35.785Z,18.93
2023-02-16T18:39:04.525Z,20.83
2023-02-16T18:41:33.900Z,20.77
2023-02-16T18:44:01.538Z,20.50
2023-02-16T18:46:28.853Z,20.60
2023-02-16T18:48:57.288Z,19.83
2023-02-16T18:51:28.949Z,18.23
2023-02-16T18:53:57.872Z,20.27
2023-02-16T18:56:25.773Z,19.93
2023-02-16T18:58:53.368Z,18.37
2023-02-16T19:01:33.335Z,19.53
2023-02-16T19:04:02.426Z,18.27
2023-02-16T19:06:29.858Z,16.85
2023-02-16T19:08:58.986Z,18.57
2023-02-16T19:11:28.230Z,17.92
2023-02-16T19:13:55.297Z,18.05
2023-02-16T19:16:22.811Z,16.33
2023-02-16T19:18:50.551Z,19.10
2023-02-16T19:21:17.727Z,18.53
2023-02-16T19:23:45.585Z,18.13
2023-02-16T19:26:19.496Z,17.70
2023-02-16T19:28:47.314Z,17.70
2023-02-16T19:31:26.628Z,17.87
2023-02-16T19:33:54.344Z,19.20
2023-02-16T19:36:23.429Z,18.00
2023-02-16T19:38:53.393Z,18.17
2023-02-16T19:41:38.093Z,19.73
2023-02-16T19:44:05.698Z,18.80
2023-02-16T19:46:34.519Z,19.47
2023-02-16T19:49:02.300Z,21.63
2023-02-16T19:51:30.183Z,21.00
2023-02-16T19:53:58.338Z,22.50
2023-02-16T19:56:27.197Z,22.87
2023-02-16T19:58:56.975Z,23.33
2023-02-16T20:01:27.361Z,25.13
2023-02-16T20:03:56.616Z,23.57
2023-02-16T20:06:29.768Z,23.53
2023-02-16T20:08:57.548Z,24.90
2023-02-16T20:11:28.157Z,24.40
2023-02-16T20:13:56.602Z,24.30
2023-02-16T20:16:24.424Z,24.40
2023-02-16T20:18:51.872Z,24.97
2023-02-16T20:21:23.369Z,26.30
2023-02-16T20:23:53.913Z,25.17
2023-02-16T20:26:25.579Z,25.67
2023-02-16T20:28:52.753Z,28.07
2023-02-16T20:31:44.731Z,27.33
2023-02-16T20:34:11.971Z,29.03
2023-02-16T20:36:39.414Z,29.30
2023-02-16T20:39:08.311Z,29.57
2023-02-16T20:41:36.096Z,28.00
2023-02-16T20:44:04.546Z,27.40
2023-02-16T20:46:31.702Z,29.80
2023-02-16T20:48:58.835Z,27.07
2023-02-16T20:51:26.300Z,28.00
2023-02-16T20:53:53.579Z,27.83
2023-02-16T20:56:26.002Z,27.00
2023-02-16T20:58:58.927Z,26.73
2023-02-16T21:01:39.455Z,26.50
2023-02-16T21:04:08.294Z,26.17
2023-02-16T21:06:36.978Z,26.20
2023-02-16T21:09:07.558Z,25.20
2023-02-16T21:11:37.180Z,25.67
2023-02-16T21:14:06.277Z,25.23
2023-02-16T21:16:34.158Z,23.73
2023-02-16T21:19:02.077Z,23.70
2023-02-16T21:21:30.086Z,22.53
2023-02-16T21:23:57.213Z,22.47
2023-02-16T21:26:25.487Z,22.33
2023-02-16T21:28:53.259Z,21.77
2023-02-16T21:31:24.137Z,20.00
2023-02-16T21:33:52.909Z,21.00
2023-02-16T21:36:25.961Z,21.30
2023-02-16T21:38:53.610Z,20.83
2023-02-16T21:41:29.089Z,19.00
2023-02-16T21:44:07.028Z,20.70
2023-02-16T21:46:40.960Z,19.37
2023-02-16T21:49:17.336Z,20.33
2023-02-16T21:51:46.744Z,18.23
2023-02-16T21:54:17.316Z,18.30
2023-02-16T21:56:50.343Z,16.67
2023-02-16T21:59:19.993Z,16.77
2023-02-16T22:01:53.309Z,17.17
2023-02-16T22:04:22.750Z,17.27
2023-02-16T22:06:51.336Z,16.73
2023-02-16T22:09:22.532Z,16.57
2023-02-16T22:11:50.361Z,16.65
2023-02-16T22:14:17.422Z,18.47
2023-02-16T22:16:46.766Z,16.93
2023-02-16T22:19:17.592Z,17.27
2023-02-16T22:21:47.774Z,16.55
2023-02-16T22:24:17.905Z,16.15
2023-02-16T22:26:49.671Z,16.52
2023-02-16T22:29:18.001Z,17.02
2023-02-16T22:31:49.884Z,15.53
2023-02-16T22:34:21.259Z,16.80
2023-02-16T22:36:49.256Z,16.35
2023-02-16T22:39:18.164Z,15.47
2023-02-16T22:41:45.397Z,16.57
2023-02-16T22:44:12.995Z,15.43
2023-02-16T22:46:40.405Z,15.27
2023-02-16T22:49:09.061Z,16.17
2023-02-16T22:51:37.704Z,15.97
2023-02-16T22:54:06.226Z,15.57
2023-02-16T22:56:34.828Z,16.27
2023-02-16T22:59:02.003Z,15.38
2023-02-16T23:01:30.536Z,14.93
2023-02-16T23:04:00.733Z,14.33
2023-02-16T23:06:32.517Z,14.40
2023-02-16T23:09:06.321Z,14.87
2023-02-16T23:11:35.647Z,14.57
2023-02-16T23:14:02.716Z,14.73
2023-02-16T23:16:30.129Z,14.63
2023-02-16T23:18:59.537Z,14.30
2023-02-16T23:21:32.667Z,13.18
2023-02-16T23:24:00.273Z,13.02
2023-02-16T23:26:31.015Z,14.33
2023-02-16T23:29:02.148Z,13.23
2023-02-16T23:31:35.783Z,13.47
2023-02-16T23:34:05.129Z,12.95
2023-02-16T23:36:35.648Z,13.33
2023-02-16T23:39:23.692Z,12.15
2023-02-16T23:41:51.023Z,12.23
2023-02-16T23:44:19.487Z,12.20
2023-02-16T23:46:46.841Z,12.80
2023-02-16T23:49:14.261Z,11.33
2023-02-16T23:51:41.440Z,11.50
2023-02-16T23:54:10.940Z,11.43
2023-02-16T23:56:39.607Z,11.47
2023-02-16T23:59:06.776Z,9.73
